Estación Meteorológica Peña el Pijo (Robertgarden) [ 09/23/17 05:49:57 CEST ]

Fecha Hora Presion(HPa) Temp (°C) Humedad % Rocio (°C) Viento ( m/s) Direccion Lluvia 1Hora(mm) Lluvia 24H(mm) LLuvia Total(mm)
2017-Jul-26 01:01:55 1010.200 19.9 72 14.7         1437.96
2017-Jul-26 02:02:08 1010.600 17.9 74 13.2         1437.96
2017-Jul-26 03:01:17 1010.500 16.8 77 12.7         1437.96
2017-Jul-26 04:03:12 1010.000 15.8 79 12.2         1437.96
2017-Jul-26 05:01:18 1010.000 15.1 81 11.9         1437.96
2017-Jul-26 06:01:22 1009.900 14.5 83 11.6         1437.96
2017-Jul-26 07:01:44 1009.900 13.4 83 10.5         1437.96
2017-Jul-26 08:01:48 1010.200 14.9 85 12.4         1437.96
2017-Jul-26 09:01:59 1010.400 20.7 73 15.7         1437.96
2017-Jul-26 10:02:12 1010.200 26.8 53 16.4         1437.96
2017-Jul-26 11:01:50 1010.100 30.7 36 13.8         1437.96
2017-Jul-26 12:01:44 1010.500 32.3 28 11.4         1437.96
2017-Jul-26 13:01:43 1010.500 35.2 24 11.3         1437.96
2017-Jul-26 14:01:39 1010.200 34.6 23 10.2         1437.96
2017-Jul-26 15:01:42 1009.700 35.2 21 9.5         1437.96
2017-Jul-26 16:01:48 1009.300 36.8 19 9.2         1437.96
2017-Jul-26 17:01:35 1009.100 38.1 18 9.3         1437.96
2017-Jul-26 18:01:39 1009.000 36.9 18 8.3         1437.96
2017-Jul-26 19:01:40 1008.900 34.9 20 8.6         1437.96
2017-Jul-26 20:01:42 1009.300 32.8 21 7.5         1437.96
2017-Jul-26 21:01:47 1009.800 27.8 26 6.3         1437.96
2017-Jul-26 22:01:43 1010.600 24.2 32 6.4         1437.96
2017-Jul-26 23:01:43 1011.400 21.6 40 7.4         1437.96

Temperatura Máxima:38°    Temperatura Mínima:13°
Presión Máxima:1011.400 Hpa    Presión Mínima:1008.900 Hpa


Volver